.
WxDataArchive / Data Records for 2011-02-18
2011-02-17 February 2011 2011-02-19

Data Records for Friday, 18 February 2011

Time	Temp	Chill	HIndex	Humid	Dewpt	 Wind 	HiWind	WindDir	Rain 	Barom 
-----	----	-----	------	-----	-----	------	------	-------	-----	----- 
00:00	53.6	53.6	53.6	83	48.6	3	7	225	0.00	29.726 
00:05	53.6	53.6	53.6	83	48.6	2	7	248	0.00	29.726 
00:10	53.8	53.8	53.8	84	49.1	3	12	248	0.00	29.726 
00:15	53.9	53.9	53.9	84	49.2	3	7	248	0.00	29.724 
00:20	54.2	54.2	54.2	84	49.5	3	6	248	0.00	29.724 
00:25	54.5	54.5	54.5	84	49.8	4	9	248	0.00	29.724 
00:30	54.8	54.8	54.8	84	50.1	4	13	270	0.00	29.727 
00:35	55.1	55.1	55.1	83	50.0	4	10	248	0.00	29.727 
00:40	55.3	55.3	55.3	83	50.2	3	9	248	0.00	29.727 
00:45	55.4	55.4	55.4	83	50.3	4	12	248	0.00	29.726 
00:50	55.6	55.6	55.6	83	50.5	4	10	248	0.00	29.726 
00:55	55.7	55.7	55.7	82	50.3	5	11	248	0.00	29.726 
01:00	55.9	55.9	55.9	82	50.5	4	10	248	0.00	29.729 
01:05	56.0	56.0	56.0	82	50.6	5	13	248	0.00	29.729 
01:10	56.0	56.0	56.0	82	50.6	5	13	248	0.00	29.729 
01:15	56.2	56.2	56.2	82	50.8	5	12	248	0.00	29.736 
01:20	56.2	56.2	56.2	82	50.8	6	12	248	0.00	29.736 
01:25	56.3	56.3	56.3	82	50.9	5	13	248	0.00	29.736 
01:30	56.2	56.2	56.2	82	50.8	4	12	248	0.00	29.743 
01:35	56.2	56.2	56.2	82	50.8	4	11	248	0.00	29.743 
01:40	56.2	56.2	56.2	82	50.8	4	10	248	0.00	29.743 
01:45	56.3	56.3	56.3	82	50.9	5	11	248	0.00	29.745 
01:50	56.5	56.5	56.5	82	51.1	5	14	248	0.00	29.745 
01:55	56.5	56.5	56.5	82	51.1	5	12	248	0.00	29.745 
02:00	56.5	56.5	56.5	82	51.1	5	12	248	0.00	29.746 
02:05	56.6	56.6	56.6	82	51.2	4	11	248	0.00	29.746 
02:10	56.6	56.6	56.6	82	51.2	5	12	248	0.00	29.746 
02:15	56.7	56.7	56.7	82	51.3	6	15	248	0.00	29.750 
02:20	56.6	56.6	56.6	82	51.2	4	11	248	0.00	29.750 
02:25	56.7	56.7	56.7	82	51.3	5	11	248	0.00	29.750 
02:30	56.7	56.7	56.7	82	51.3	5	10	248	0.00	29.758 
02:35	56.7	56.7	56.7	82	51.3	4	13	248	0.00	29.758 
02:40	56.7	56.7	56.7	82	51.3	4	11	248	0.00	29.758 
02:45	56.7	56.7	56.7	82	51.3	5	11	248	0.00	29.764 
02:50	56.9	56.9	56.9	82	51.5	5	12	248	0.00	29.764 
02:55	57.0	57.0	57.0	82	51.6	5	14	248	0.00	29.764 
03:00	57.2	57.2	57.2	82	51.8	4	9	248	0.00	29.770 
03:05	57.3	57.3	57.3	82	51.9	6	13	248	0.00	29.770 
03:10	57.5	57.5	57.5	81	51.7	6	17	248	0.00	29.770 
03:15	57.3	57.3	57.3	81	51.5	6	12	248	0.00	29.773 
03:20	57.2	57.2	57.2	81	51.4	4	10	248	0.00	29.773 
03:25	57.0	57.0	57.0	81	51.2	6	13	248	0.00	29.773 
03:30	56.9	56.9	56.9	82	51.5	4	10	248	0.00	29.776 
03:35	56.6	56.6	56.6	82	51.2	5	12	270	0.00	29.776 
03:40	56.5	56.5	56.5	83	51.4	4	10	270	0.00	29.776 
03:45	56.2	56.2	56.2	83	51.1	4	10	270	0.00	29.789 
03:50	56.0	56.0	56.0	83	50.9	3	7	270	0.00	29.789 
03:55	55.7	55.7	55.7	83	50.6	4	10	248	0.00	29.789 
04:00	55.3	55.3	55.3	83	50.2	2	5	248	0.00	29.789 
04:05	55.0	55.0	55.0	83	49.9	3	5	248	0.00	29.789 
04:10	54.7	54.7	54.7	83	49.6	2	5	225	0.00	29.789 
04:15	54.2	54.2	54.2	83	49.1	2	4	225	0.00	29.800 
04:20	53.9	53.9	53.9	83	48.9	2	6	248	0.00	29.800 
04:25	53.6	53.6	53.6	83	48.6	2	4	248	0.00	29.800 
04:30	53.5	53.5	53.5	83	48.5	2	4	248	0.00	29.816 
04:35	53.2	53.2	53.2	84	48.5	2	5	248	0.00	29.816 
04:40	52.9	52.9	52.9	84	48.2	2	5	248	0.00	29.816 
04:45	52.6	52.6	52.6	84	47.9	2	6	248	0.00	29.835 
04:50	52.3	52.3	52.3	84	47.6	2	4	248	0.00	29.835 
04:55	52.2	52.2	52.2	84	47.5	2	4	248	0.00	29.835 
05:00	52.0	52.0	52.0	83	47.0	3	6	248	0.00	29.842 
05:05	51.7	51.7	51.7	79	45.4	2	4	270	0.00	29.842 
05:10	51.7	51.7	51.7	75	44.0	3	6	270	0.00	29.842 
05:15	51.6	51.6	51.6	68	41.4	3	6	270	0.00	29.852 
05:20	51.6	51.6	51.6	65	40.2	3	6	270	0.00	29.852 
05:25	51.4	51.4	51.4	64	39.6	3	5	270	0.00	29.852 
05:30	51.3	51.3	51.3	65	39.9	2	4	248	0.00	29.861 
05:35	50.8	50.8	50.8	67	40.2	1	4	248	0.00	29.861 
05:40	50.4	50.4	50.4	69	40.6	2	5	225	0.00	29.861 
05:45	50.1	50.1	50.1	66	39.2	3	4	248	0.00	29.871 
05:50	49.9	49.9	49.9	65	38.6	2	4	248	0.00	29.871 
05:55	49.8	49.8	49.8	62	37.3	3	8	270	0.00	29.871 
06:00	49.6	49.6	49.6	59	35.9	3	4	248	0.00	29.875 
06:05	49.4	49.4	49.4	58	35.2	2	4	270	0.00	29.875 
06:10	49.1	49.1	49.1	58	35.0	2	4	248	0.00	29.875 
06:15	48.8	48.8	48.8	58	34.7	2	3	248	0.00	29.878 
06:20	48.5	48.5	48.5	57	34.0	2	3	248	0.00	29.878 
06:25	48.3	48.3	48.3	57	33.8	1	3	225	0.00	29.878 
06:30	48.0	48.0	48.0	56	33.1	1	3	225	0.00	29.892 
06:35	47.7	47.7	47.7	56	32.8	2	3	225	0.00	29.892 
06:40	47.6	47.6	47.6	57	33.1	1	3	225	0.00	29.892 
06:45	47.1	47.1	47.1	58	33.1	1	5	248	0.00	29.908 
06:50	47.1	47.1	47.1	58	33.1	2	4	248	0.00	29.908 
06:55	47.1	47.1	47.1	57	32.7	2	5	248	0.00	29.908 
07:00	47.0	47.0	47.0	56	32.1	2	4	248	0.00	29.910 
07:05	46.8	46.8	46.8	56	31.9	2	6	248	0.00	29.910 
07:10	46.5	46.5	46.5	56	31.7	2	3	248	0.00	29.910 
07:15	46.4	46.4	46.4	55	31.1	2	4	248	0.00	29.927 
07:20	46.1	46.1	46.1	55	30.8	2	4	248	0.00	29.927 
07:25	46.0	46.0	46.0	55	30.7	2	3	292	0.00	29.927 
07:30	45.8	45.8	45.8	56	31.0	1	4	270	0.00	29.937 
07:35	45.7	45.7	45.7	58	31.8	2	7	248	0.00	29.937 
07:40	45.7	45.7	45.7	58	31.8	2	6	248	0.00	29.937 
07:45	45.8	45.8	45.8	58	31.9	2	5	248	0.00	29.938 
07:50	45.7	45.7	45.7	59	32.2	2	5	248	0.00	29.938 
07:55	45.5	45.5	45.5	59	32.0	2	7	248	0.00	29.938 
08:00	45.4	45.4	45.4	60	32.3	2	7	248	0.00	29.955 
08:05	45.2	45.2	45.2	61	32.6	2	4	248	0.00	29.955 
08:10	45.1	45.1	45.1	62	32.9	2	5	270	0.00	29.955 
08:15	44.6	44.6	44.6	63	32.8	2	6	292	0.00	29.961 
08:20	44.5	44.5	44.5	63	32.7	2	4	248	0.00	29.961 
08:25	44.2	44.2	44.2	64	32.8	2	5	248	0.00	29.961 
08:30	44.1	44.1	44.1	64	32.7	2	5	248	0.00	29.963 
08:35	43.9	43.9	43.9	63	32.1	3	6	248	0.00	29.963 
08:40	44.1	44.1	44.1	62	31.9	2	5	248	0.00	29.963 
08:45	44.2	44.2	44.2	61	31.6	3	6	248	0.00	29.979 
08:50	44.3	44.3	44.3	60	31.3	2	6	248	0.00	29.979 
08:55	44.6	44.6	44.6	59	31.2	3	7	248	0.00	29.979 
09:00	44.8	44.8	44.8	59	31.4	3	7	248	0.00	29.985 
09:05	45.1	45.1	45.1	58	31.2	3	11	248	0.00	29.985 
09:10	44.9	44.9	44.9	58	31.0	3	9	270	0.00	29.985 
09:15	44.8	44.8	44.8	58	30.9	3	9	248	0.00	29.981 
09:20	44.9	44.9	44.9	59	31.5	3	6	248	0.00	29.981 
09:25	45.1	43.2	45.1	58	31.2	4	12	248	0.00	29.981 
09:30	45.2	43.3	45.2	58	31.3	4	11	248	0.00	29.988 
09:35	45.2	45.2	45.2	58	31.3	3	9	248	0.00	29.988 
09:40	45.2	42.6	45.2	58	31.3	5	10	270	0.00	29.988 
09:45	45.2	43.3	45.2	58	31.3	4	7	270	0.00	29.993 
09:50	45.2	42.6	45.2	57	30.9	5	14	248	0.00	29.993 
09:55	45.4	43.6	45.4	56	30.6	4	9	270	0.00	29.993 
10:00	45.8	44.0	45.8	55	30.6	4	9	292	0.00	29.991 
10:05	46.2	46.2	46.2	54	30.5	3	10	248	0.00	29.991 
10:10	46.8	46.8	46.8	54	31.0	3	8	248	0.00	29.991 
10:15	47.3	47.3	47.3	52	30.6	3	7	248	0.00	29.992 
10:20	47.3	45.0	47.3	51	30.1	5	10	270	0.00	29.992 
10:25	47.4	45.2	47.4	52	30.7	5	13	248	0.00	29.992 
10:30	47.4	45.2	47.4	51	30.2	5	11	270	0.00	30.008 
10:35	47.4	45.9	47.4	52	30.7	4	9	270	0.00	30.008 
10:40	47.3	45.0	47.3	52	30.6	5	11	270	0.00	30.008 
10:45	47.3	45.0	47.3	52	30.6	5	14	270	0.00	30.016 
10:50	47.4	45.9	47.4	54	31.6	4	11	248	0.00	30.016 
10:55	47.4	45.2	47.4	52	30.7	5	17	248	0.00	30.016 
11:00	47.7	46.2	47.7	53	31.4	4	10	270	0.00	30.023 
11:05	47.9	46.4	47.9	53	31.6	4	11	270	0.00	30.023 
11:10	47.6	45.4	47.6	53	31.3	5	11	270	0.00	30.023 
11:15	47.3	45.0	47.3	53	31.0	5	13	270	0.00	30.032 
11:20	47.4	45.2	47.4	54	31.6	5	11	270	0.00	30.032 
11:25	47.7	45.5	47.7	53	31.4	5	13	270	0.00	30.032 
11:30	48.0	45.9	48.0	49	29.8	5	15	270	0.00	30.040 
11:35	48.9	46.9	48.9	47	29.6	5	10	270	0.00	30.040 
11:40	48.9	46.9	48.9	43	27.4	5	11	270	0.00	30.040 
11:45	49.2	47.9	49.2	45	28.8	4	7	270	0.00	30.043 
11:50	49.5	48.3	49.5	44	28.5	4	10	270	0.00	30.043 
11:55	49.1	46.1	49.1	44	28.1	7	15	270	0.00	30.043 
12:00	49.2	47.3	49.2	43	27.7	5	11	270	0.00	30.047 
12:05	49.2	46.7	49.2	44	28.2	6	19	270	0.00	30.047 
12:10	49.2	46.7	49.2	44	28.2	6	14	270	0.00	30.047 
12:15	49.2	47.3	49.2	41	26.5	5	11	270	0.00	30.050 
12:20	49.2	47.3	49.2	43	27.7	5	13	270	0.00	30.050 
12:25	49.5	48.3	49.5	45	29.0	4	7	270	0.00	30.050 
12:30	49.6	48.4	49.6	44	28.6	4	10	270	0.00	30.049 
12:35	49.6	47.7	49.6	41	26.9	5	12	270	0.00	30.049 
12:40	49.6	47.7	49.6	42	27.5	5	10	270	0.00	30.049 
12:45	50.1	50.1	50.1	41	27.3	4	7	270	0.00	30.052 
12:50	50.5	50.5	50.5	40	27.1	4	7	270	0.00	30.052 
12:55	50.5	50.5	50.5	37	25.2	5	12	270	0.00	30.052 
13:00	50.7	50.7	50.7	40	27.3	4	9	270	0.00	30.048 
13:05	50.7	50.7	50.7	35	24.1	5	11	270	0.00	30.048 
13:10	50.8	50.8	50.8	37	25.5	5	10	270	0.00	30.048 
13:15	51.0	51.0	51.0	36	25.0	4	9	270	0.00	30.046 
13:20	51.4	51.4	51.4	39	27.3	3	5	270	0.00	30.046 
13:25	51.7	51.7	51.7	35	24.9	4	10	270	0.00	30.046 
13:30	51.6	51.6	51.6	33	23.4	5	10	270	0.00	30.043 
13:35	51.4	51.4	51.4	35	24.7	5	9	270	0.00	30.043 
13:40	52.0	52.0	52.0	35	25.2	3	7	270	0.00	30.043 
13:45	52.0	52.0	52.0	33	23.8	5	11	270	0.00	30.047 
13:50	51.9	51.9	51.9	32	23.0	6	11	270	0.00	30.047 
13:55	51.6	51.6	51.6	28	19.6	6	14	270	0.00	30.047 
14:00	51.6	51.6	51.6	30	21.2	5	13	270	0.00	30.048 
14:05	51.6	51.6	51.6	31	22.0	4	11	270	0.00	30.048 
14:10	51.7	51.7	51.7	34	24.2	4	12	270	0.00	30.048 
14:15	51.9	51.9	51.9	29	20.7	7	15	270	0.00	30.047 
14:20	51.7	51.7	51.7	30	21.3	4	9	270	0.00	30.047 
14:25	52.2	52.2	52.2	31	22.5	4	6	270	0.00	30.047 
14:30	52.2	52.2	52.2	30	21.7	5	10	270	0.00	30.043 
14:35	52.3	52.3	52.3	30	21.8	5	12	248	0.00	30.043 
14:40	52.3	52.3	52.3	30	21.8	5	11	270	0.00	30.043 
14:45	52.2	52.2	52.2	29	20.9	6	11	270	0.00	30.043 
14:50	52.3	52.3	52.3	31	22.6	3	6	270	0.00	30.043 
14:55	52.5	52.5	52.5	31	22.8	5	10	270	0.00	30.043 
15:00	52.3	52.3	52.3	32	23.3	4	7	270	0.00	30.051 
15:05	52.2	52.2	52.2	31	22.5	4	10	248	0.00	30.051 
15:10	52.2	52.2	52.2	30	21.7	5	10	270	0.00	30.051 
15:15	52.0	52.0	52.0	31	22.3	5	11	270	0.00	30.053 
15:20	52.3	52.3	52.3	31	22.6	4	11	270	0.00	30.053 
15:25	52.6	52.6	52.6	29	21.3	5	10	270	0.00	30.053 
15:30	52.6	52.6	52.6	30	22.1	5	11	270	0.00	30.053 
15:35	52.5	52.5	52.5	30	22.0	5	12	270	0.00	30.053 
15:40	52.6	52.6	52.6	30	22.1	4	10	270	0.00	30.053 
15:45	52.5	52.5	52.5	31	22.8	5	10	270	0.00	30.058 
15:50	52.3	52.3	52.3	30	21.8	4	10	270	0.00	30.058 
15:55	51.9	51.9	51.9	28	19.8	7	16	270	0.00	30.058 
16:00	51.7	51.7	51.7	29	20.5	5	11	270	0.00	30.060 
16:05	52.0	52.0	52.0	30	21.5	4	10	270	0.00	30.060 
16:10	52.0	52.0	52.0	30	21.5	5	16	270	0.00	30.060 
16:15	52.0	52.0	52.0	29	20.7	5	10	270	0.00	30.067 
16:20	51.6	51.6	51.6	31	22.0	5	10	270	0.00	30.067 
16:25	51.6	51.6	51.6	31	22.0	4	9	270	0.00	30.067 
16:30	51.4	51.4	51.4	31	21.8	5	15	270	0.00	30.071 
16:35	51.3	51.3	51.3	32	22.5	4	7	270	0.00	30.071 
16:40	51.3	51.3	51.3	31	21.7	4	11	270	0.00	30.071 
16:45	51.0	51.0	51.0	31	21.4	4	10	270	0.00	30.078 
16:50	50.2	50.2	50.2	31	20.7	5	10	270	0.00	30.078 
16:55	49.9	47.5	49.9	32	21.2	6	10	270	0.00	30.078 
17:00	49.9	48.8	49.9	33	22.0	4	7	270	0.00	30.083 
17:05	49.8	48.0	49.8	33	21.9	5	8	270	0.00	30.083 
17:10	49.8	48.0	49.8	33	21.9	5	11	270	0.00	30.083 
17:15	49.6	48.4	49.6	34	22.4	4	11	270	0.00	30.086 
17:20	49.5	48.3	49.5	34	22.3	4	11	270	0.00	30.086 
17:25	49.4	48.2	49.4	35	22.9	4	6	270	0.00	30.086 
17:30	49.2	47.3	49.2	36	23.4	5	12	248	0.00	30.088 
17:35	48.8	47.5	48.8	35	22.4	4	10	270	0.00	30.088 
17:40	48.5	47.1	48.5	36	22.8	4	9	248	0.00	30.088 
17:45	48.0	46.6	48.0	37	23.0	4	12	270	0.00	30.094 
17:50	47.6	46.1	47.6	38	23.3	4	8	270	0.00	30.094 
17:55	47.3	45.8	47.3	38	23.0	4	9	270	0.00	30.094 
18:00	47.1	44.8	47.1	38	22.8	5	10	270	0.00	30.104 
18:05	47.0	45.4	47.0	38	22.7	4	9	270	0.00	30.104 
18:10	46.8	44.5	46.8	38	22.5	5	11	270	0.00	30.104 
18:15	46.7	45.1	46.7	39	23.1	4	6	248	0.00	30.112 
18:20	46.4	44.7	46.4	40	23.4	4	12	248	0.00	30.112 
18:25	46.1	44.4	46.1	41	23.7	4	6	292	0.00	30.112 
18:30	46.0	44.2	46.0	41	23.6	4	7	270	0.00	30.118 
18:35	46.0	46.0	46.0	41	23.6	3	7	270	0.00	30.118 
18:40	45.7	45.7	45.7	42	23.9	2	5	248	0.00	30.118 
18:45	45.2	43.3	45.2	43	24.0	4	9	270	0.00	30.123 
18:50	45.2	43.3	45.2	43	24.0	4	7	270	0.00	30.123 
18:55	45.1	43.2	45.1	43	24.0	4	10	292	0.00	30.123 
19:00	44.8	44.8	44.8	44	24.2	3	5	248	0.00	30.126 
19:05	44.6	42.6	44.6	44	24.1	4	9	248	0.00	30.126 
19:10	44.5	42.5	44.5	44	24.0	4	9	270	0.00	30.126 
19:15	44.3	44.3	44.3	44	23.8	3	7	248	0.00	30.135 
19:20	44.1	42.1	44.1	45	24.1	4	9	248	0.00	30.135 
19:25	44.2	42.2	44.2	45	24.2	4	7	270	0.00	30.135 
19:30	44.1	44.1	44.1	45	24.1	3	6	248	0.00	30.140 
19:35	43.9	41.8	43.9	45	23.9	4	9	270	0.00	30.140 
19:40	43.9	43.9	43.9	46	24.5	3	6	270	0.00	30.140 
19:45	43.8	43.8	43.8	47	24.9	3	7	248	0.00	30.143 
19:50	43.6	41.5	43.6	47	24.7	4	9	270	0.00	30.143 
19:55	43.3	43.3	43.3	48	24.9	3	7	248	0.00	30.143 
20:00	43.2	43.2	43.2	48	24.9	3	6	248	0.00	30.144 
20:05	43.1	40.9	43.1	49	25.3	4	12	270	0.00	30.144 
20:10	42.9	42.9	42.9	49	25.1	3	10	248	0.00	30.144 
20:15	42.6	40.3	42.6	49	24.8	4	7	270	0.00	30.145 
20:20	42.6	39.5	42.6	49	24.8	5	10	270	0.00	30.145 
20:25	42.6	40.3	42.6	49	24.8	4	7	270	0.00	30.145 
20:30	42.3	42.3	42.3	49	24.5	3	5	248	0.00	30.146 
20:35	42.2	42.2	42.2	50	24.9	3	9	248	0.00	30.146 
20:40	42.1	42.1	42.1	50	24.8	3	7	248	0.00	30.146 
20:45	41.9	41.9	41.9	50	24.6	3	6	270	0.00	30.156 
20:50	41.9	39.5	41.9	50	24.6	4	6	270	0.00	30.156 
20:55	41.8	41.8	41.8	50	24.5	3	7	248	0.00	30.156 
21:00	41.8	41.8	41.8	50	24.5	3	6	248	0.00	30.161 
21:05	41.6	39.2	41.6	50	24.4	4	11	270	0.00	30.161 
21:10	41.6	41.6	41.6	50	24.4	3	6	270	0.00	30.161 
21:15	41.5	41.5	41.5	50	24.3	3	8	270	0.00	30.162 
21:20	41.2	41.2	41.2	51	24.5	3	5	270	0.00	30.162 
21:25	41.1	41.1	41.1	52	24.8	3	5	270	0.00	30.162 
21:30	40.9	40.9	40.9	52	24.6	3	6	270	0.00	30.167 
21:35	40.9	40.9	40.9	52	24.6	3	5	248	0.00	30.167 
21:40	40.8	40.8	40.8	53	25.0	3	7	292	0.00	30.167 
21:45	40.6	40.6	40.6	53	24.8	3	6	270	0.00	30.174 
21:50	40.5	40.5	40.5	54	25.2	3	6	248	0.00	30.174 
21:55	40.3	40.3	40.3	54	25.0	3	7	270	0.00	30.174 
22:00	40.2	40.2	40.2	54	24.9	3	6	270	0.00	30.177 
22:05	40.1	40.1	40.1	54	24.8	3	7	248	0.00	30.177 
22:10	40.2	37.5	40.2	53	24.5	4	6	270	0.00	30.177 
22:15	40.1	40.1	40.1	53	24.4	3	5	270	0.00	30.174 
22:20	40.1	40.1	40.1	52	23.9	3	6	270	0.00	30.174 
22:25	39.9	39.9	39.9	53	24.2	3	5	248	0.00	30.174 
22:30	39.6	39.6	39.6	53	23.9	2	5	248	0.00	30.175 
22:35	39.5	39.5	39.5	53	23.8	3	6	270	0.00	30.175 
22:40	39.2	39.2	39.2	54	24.0	3	6	248	0.00	30.175 
22:45	39.2	39.2	39.2	54	24.0	3	6	270	0.00	30.178 
22:50	39.1	39.1	39.1	54	23.9	3	10	248	0.00	30.178 
22:55	38.9	38.9	38.9	54	23.7	3	6	248	0.00	30.178 
23:00	38.8	38.8	38.8	55	24.0	3	5	248	0.00	30.178 
23:05	38.6	38.6	38.6	55	23.8	2	5	248	0.00	30.178 
23:10	38.5	38.5	38.5	55	23.8	2	4	248	0.00	30.178 
23:15	38.5	38.5	38.5	55	23.8	2	4	292	0.00	30.178 
23:20	38.3	38.3	38.3	55	23.6	3	7	248	0.00	30.178 
23:25	38.3	38.3	38.3	55	23.6	3	6	248	0.00	30.178 
23:30	38.3	38.3	38.3	55	23.6	3	5	248	0.00	30.183 
23:35	38.2	38.2	38.2	55	23.5	3	6	270	0.00	30.183 
23:40	38.2	38.2	38.2	55	23.5	3	5	270	0.00	30.183 
23:45	38.0	38.0	38.0	55	23.3	3	6	248	0.00	30.188 
23:50	38.0	38.0	38.0	56	23.7	3	5	270	0.00	30.188 
23:55	37.9	37.9	37.9	56	23.6	3	6	270	0.00	30.188 

CoCoRaHS
IN-AL-39
A2 Web Hosting
Creative Commons License
GoDaddy
search engine by freefind advanced

loaded 2018-11-21 01:02:10 • last modified 2010-11-18 10:43:29
Privacy PolicyDisclaimer
• wx.awcolley.com is powered by PmWiki v.2002016 •
• all content (unless otherwise noted) © 2018 A W Colley